createdAt,value
2019-03-12T00:01:14.251Z,99.99
2019-03-12T00:01:59.598Z,99.99
2019-03-12T00:02:59.611Z,99.99
2019-03-12T00:03:59.630Z,99.99
2019-03-12T00:04:59.637Z,99.99
2019-03-12T00:05:59.653Z,99.99
2019-03-12T00:06:59.664Z,99.99
2019-03-12T00:07:59.679Z,99.99
2019-03-12T00:09:59.704Z,99.99
2019-03-12T00:10:59.719Z,99.99
2019-03-12T00:11:59.737Z,99.99
2019-03-12T00:12:59.745Z,99.99
2019-03-12T00:13:59.757Z,99.99
2019-03-12T00:14:59.788Z,99.99
2019-03-12T00:15:59.783Z,99.99
2019-03-12T00:17:14.458Z,99.99
2019-03-12T00:17:59.809Z,99.99
2019-03-12T00:18:59.857Z,99.99
2019-03-12T00:19:59.836Z,99.99
2019-03-12T00:20:59.851Z,99.99
2019-03-12T00:21:59.863Z,99.99
2019-03-12T00:22:59.875Z,99.99
2019-03-12T00:23:59.889Z,99.99
2019-03-12T00:24:59.901Z,99.99
2019-03-12T00:25:59.917Z,99.99
2019-03-12T00:26:59.930Z,99.99
2019-03-12T00:27:59.939Z,99.99
2019-03-12T00:28:59.956Z,99.99
2019-03-12T00:29:59.972Z,99.99
2019-03-12T00:31:00.050Z,99.99
2019-03-12T00:31:59.994Z,99.99
2019-03-12T00:33:14.670Z,99.99
2019-03-12T00:34:00.024Z,99.99
2019-03-12T00:35:00.038Z,99.99
2019-03-12T00:36:00.045Z,99.99
2019-03-12T00:37:00.061Z,99.99
2019-03-12T00:38:00.083Z,99.99
2019-03-12T00:39:00.084Z,99.99
2019-03-12T00:40:00.351Z,99.99
2019-03-12T00:41:00.124Z,99.99
2019-03-12T00:42:00.126Z,99.99
2019-03-12T00:43:00.145Z,99.99
2019-03-12T00:44:00.159Z,99.99
2019-03-12T00:45:00.206Z,99.99
2019-03-12T00:47:00.194Z,99.99
2019-03-12T00:48:14.868Z,99.99
2019-03-12T00:49:00.222Z,99.99
2019-03-12T00:50:00.372Z,99.99
2019-03-12T00:51:00.246Z,99.99
2019-03-12T00:52:00.258Z,99.99
2019-03-12T00:53:00.274Z,99.99
2019-03-12T00:54:00.283Z,99.99
2019-03-12T00:55:00.367Z,99.99
2019-03-12T00:56:00.314Z,99.99
2019-03-12T00:57:00.323Z,99.99
2019-03-12T00:59:00.349Z,99.99
2019-03-12T01:00:00.429Z,99.99
2019-03-12T01:01:00.375Z,99.99
2019-03-12T01:02:00.388Z,99.99
2019-03-12T01:03:00.404Z,99.99
2019-03-12T01:04:00.416Z,99.99
2019-03-12T01:05:00.435Z,99.99
2019-03-12T01:06:00.445Z,99.99
2019-03-12T01:07:00.453Z,99.99
2019-03-12T01:08:00.466Z,99.99
2019-03-12T01:09:00.479Z,99.99
2019-03-12T01:10:00.491Z,99.99
2019-03-12T01:11:00.504Z,99.99
2019-03-12T01:12:00.518Z,99.99
2019-03-12T01:13:00.532Z,99.99
2019-03-12T01:14:00.545Z,99.99
2019-03-12T01:15:00.557Z,99.99
2019-03-12T01:16:00.570Z,99.99
2019-03-12T01:18:00.597Z,99.99
2019-03-12T01:19:00.364Z,99.99
2019-03-12T01:20:15.284Z,99.99
2019-03-12T01:21:00.639Z,99.99
2019-03-12T01:22:00.656Z,99.99
2019-03-12T01:23:00.661Z,99.99
2019-03-12T01:24:00.775Z,99.99
2019-03-12T01:25:00.693Z,99.99
2019-03-12T01:26:00.721Z,99.99
2019-03-12T01:27:00.714Z,99.99
2019-03-12T01:28:00.728Z,99.99
2019-03-12T01:29:00.739Z,99.99
2019-03-12T01:30:00.753Z,99.99
2019-03-12T01:31:00.765Z,99.99
2019-03-12T01:32:00.778Z,99.99
2019-03-12T01:33:00.794Z,99.99
2019-03-12T01:34:00.808Z,99.99
2019-03-12T01:35:00.821Z,99.99
2019-03-12T01:36:15.494Z,99.99
2019-03-12T01:37:00.844Z,99.99
2019-03-12T01:38:00.856Z,99.99
2019-03-12T01:39:00.874Z,99.99
2019-03-12T01:40:00.887Z,99.99
2019-03-12T01:41:00.901Z,99.99
2019-03-12T01:42:00.924Z,99.99
2019-03-12T01:43:00.925Z,99.99
2019-03-12T01:44:00.939Z,99.99
2019-03-12T01:45:00.948Z,99.99
2019-03-12T01:46:00.962Z,99.99
2019-03-12T01:47:00.977Z,99.99
2019-03-12T01:48:00.993Z,99.99
2019-03-12T01:49:01.006Z,99.99
2019-03-12T01:50:01.015Z,99.99
2019-03-12T01:51:01.029Z,99.99
2019-03-12T01:52:15.704Z,99.99
2019-03-12T01:53:01.057Z,99.99
2019-03-12T01:54:01.080Z,99.99
2019-03-12T01:55:01.084Z,99.99
2019-03-12T01:56:01.095Z,99.99
2019-03-12T01:57:01.110Z,99.99
2019-03-12T01:58:01.122Z,99.99
2019-03-12T01:59:01.135Z,99.99
2019-03-12T02:00:01.148Z,99.99
2019-03-12T02:01:01.264Z,99.99
2019-03-12T02:02:01.174Z,99.99
2019-03-12T02:03:01.188Z,99.99
2019-03-12T02:06:01.227Z,99.99
2019-03-12T02:07:01.241Z,99.99
2019-03-12T02:08:15.916Z,99.99
2019-03-12T02:09:01.271Z,99.99
2019-03-12T02:10:01.280Z,99.99
2019-03-12T02:11:01.292Z,99.99
2019-03-12T02:12:01.308Z,99.99
2019-03-12T02:13:01.321Z,99.99
2019-03-12T02:14:01.336Z,99.99
2019-03-12T02:15:01.347Z,99.99
2019-03-12T02:16:01.360Z,99.99
2019-03-12T02:18:01.388Z,99.99
2019-03-12T02:19:01.406Z,99.99
2019-03-12T02:20:01.432Z,99.99
2019-03-12T02:21:01.430Z,99.99
2019-03-12T02:22:01.440Z,99.99
2019-03-12T02:23:16.117Z,99.99
2019-03-12T02:24:01.473Z,99.99
2019-03-12T02:25:01.585Z,99.99
2019-03-12T02:26:01.523Z,99.99
2019-03-12T02:27:01.509Z,99.99
2019-03-12T02:28:01.521Z,99.99
2019-03-12T02:29:01.535Z,99.99
2019-03-12T02:30:01.549Z,99.99
2019-03-12T02:31:01.565Z,99.99
2019-03-12T02:32:01.583Z,99.99
2019-03-12T02:33:01.612Z,99.99
2019-03-12T02:35:01.622Z,99.99
2019-03-12T02:36:01.629Z,99.99
2019-03-12T02:37:01.404Z,99.99
2019-03-12T02:38:01.670Z,99.99
2019-03-12T02:39:01.671Z,99.99
2019-03-12T02:40:01.683Z,99.99
2019-03-12T02:41:01.702Z,99.99
2019-03-12T02:42:01.723Z,99.99
2019-03-12T02:43:01.723Z,99.99
2019-03-12T02:44:01.739Z,99.99
2019-03-12T02:45:01.763Z,99.99
2019-03-12T02:46:01.771Z,99.99
2019-03-12T02:47:01.793Z,99.99
2019-03-12T02:48:01.805Z,99.99
2019-03-12T02:49:01.834Z,99.99
2019-03-12T02:50:01.825Z,99.99
2019-03-12T02:51:01.831Z,99.99
2019-03-12T02:52:01.852Z,99.99
2019-03-12T02:53:01.864Z,99.99
2019-03-12T02:54:01.889Z,99.99
2019-03-12T02:55:16.553Z,99.99
2019-03-12T02:56:04.391Z,99.99
2019-03-12T02:57:01.922Z,99.99
2019-03-12T02:58:01.930Z,99.99
2019-03-12T03:00:01.960Z,99.99
2019-03-12T03:01:02.111Z,99.99
2019-03-12T03:02:01.991Z,99.99
2019-03-12T03:03:01.997Z,99.99
2019-03-12T03:04:02.010Z,99.99
2019-03-12T03:05:02.024Z,99.99
2019-03-12T03:06:02.039Z,99.99
2019-03-12T03:07:01.804Z,99.99
2019-03-12T03:08:02.075Z,99.99
2019-03-12T03:09:02.098Z,99.99
2019-03-12T03:10:02.093Z,99.99
2019-03-12T03:11:16.765Z,99.99
2019-03-12T03:12:02.126Z,99.99
2019-03-12T03:13:02.131Z,99.99
2019-03-12T03:14:02.155Z,99.99
2019-03-12T03:15:02.158Z,99.99
2019-03-12T03:16:02.216Z,99.99
2019-03-12T03:17:02.192Z,99.99
2019-03-12T03:18:02.212Z,99.99
2019-03-12T03:19:02.228Z,99.99
2019-03-12T03:20:02.235Z,99.99
2019-03-12T03:21:02.255Z,99.99
2019-03-12T03:22:02.260Z,99.99
2019-03-12T03:23:02.274Z,99.99
2019-03-12T03:24:02.045Z,99.99
2019-03-12T03:25:02.299Z,99.99
2019-03-12T03:26:02.318Z,99.99
2019-03-12T03:27:17.086Z,99.99
2019-03-12T03:28:02.344Z,99.99
2019-03-12T03:29:02.350Z,99.99
2019-03-12T03:30:02.366Z,99.99
2019-03-12T03:31:02.429Z,99.99
2019-03-12T03:32:02.408Z,99.99
2019-03-12T03:33:02.438Z,99.99
2019-03-12T03:34:02.429Z,99.99
2019-03-12T03:35:02.439Z,99.99
2019-03-12T03:36:02.468Z,99.99
2019-03-12T03:37:02.464Z,99.99
2019-03-12T03:38:02.479Z,99.99
2019-03-12T03:39:02.500Z,99.99
2019-03-12T03:40:02.792Z,99.99
2019-03-12T03:41:02.516Z,99.99
2019-03-12T03:42:02.562Z,99.99
2019-03-12T03:43:17.217Z,99.99
2019-03-12T03:44:02.564Z,99.99
2019-03-12T03:45:02.933Z,99.99
2019-03-12T03:46:02.590Z,99.99
2019-03-12T03:47:02.603Z,99.99
2019-03-12T03:48:02.630Z,99.99
2019-03-12T03:49:02.628Z,99.99
2019-03-12T03:50:02.880Z,99.99
2019-03-12T03:51:02.657Z,99.99
2019-03-12T03:52:02.673Z,99.99
2019-03-12T03:53:02.683Z,99.99
2019-03-12T03:55:03.048Z,99.99
2019-03-12T03:56:02.737Z,99.99
2019-03-12T03:57:02.846Z,99.99
2019-03-12T03:58:17.414Z,99.99
2019-03-12T03:59:02.774Z,99.99
2019-03-12T04:00:03.249Z,99.99
2019-03-12T04:01:02.813Z,99.99
2019-03-12T04:02:02.803Z,99.99
2019-03-12T04:03:02.894Z,99.99
2019-03-12T04:04:02.832Z,99.99
2019-03-12T04:05:03.215Z,99.99
2019-03-12T04:06:02.865Z,99.99
2019-03-12T04:07:02.873Z,99.99
2019-03-12T04:08:02.895Z,99.99
2019-03-12T04:09:02.909Z,99.99
2019-03-12T04:10:02.921Z,99.99
2019-03-12T04:12:02.955Z,99.99
2019-03-12T04:13:02.957Z,99.99
2019-03-12T04:14:03.072Z,99.99
2019-03-12T04:15:02.992Z,99.99
2019-03-12T04:16:02.997Z,99.99
2019-03-12T04:17:03.023Z,99.99
2019-03-12T04:18:03.029Z,99.99
2019-03-12T04:19:03.039Z,99.99
2019-03-12T04:21:03.085Z,99.99
2019-03-12T04:22:03.094Z,99.99
2019-03-12T04:23:03.103Z,99.99
2019-03-12T04:26:03.173Z,99.99
2019-03-12T04:27:03.154Z,99.99
2019-03-12T04:28:03.171Z,99.99
2019-03-12T04:29:03.180Z,99.99
2019-03-12T04:30:17.852Z,99.99
2019-03-12T04:31:03.208Z,99.99
2019-03-12T04:32:03.221Z,99.99
2019-03-12T04:33:03.234Z,99.99
2019-03-12T04:34:03.328Z,99.99
2019-03-12T04:35:03.264Z,99.99
2019-03-12T04:36:03.326Z,99.99
2019-03-12T04:37:03.297Z,99.99
2019-03-12T04:38:03.303Z,99.99
2019-03-12T04:39:03.324Z,99.99
2019-03-12T04:40:03.333Z,99.99
2019-03-12T04:41:03.345Z,99.99
2019-03-12T04:42:03.366Z,99.99
2019-03-12T04:43:03.373Z,99.99
2019-03-12T04:45:03.399Z,99.99
2019-03-12T04:46:18.079Z,99.99
2019-03-12T04:47:03.426Z,99.99
2019-03-12T04:48:03.442Z,99.99
2019-03-12T04:49:03.460Z,99.99
2019-03-12T04:50:03.468Z,99.99
2019-03-12T04:51:03.482Z,99.99
2019-03-12T04:52:03.496Z,99.99
2019-03-12T04:53:03.510Z,99.99
2019-03-12T04:54:03.524Z,99.99
2019-03-12T04:55:03.546Z,99.99
2019-03-12T04:56:03.551Z,99.99
2019-03-12T04:57:03.565Z,99.99
2019-03-12T04:58:03.579Z,99.99
2019-03-12T04:59:03.597Z,99.99
2019-03-12T05:00:03.613Z,99.99
2019-03-12T05:01:03.622Z,99.99
2019-03-12T05:02:18.297Z,99.99
2019-03-12T05:03:03.658Z,99.99
2019-03-12T05:04:03.765Z,99.99
2019-03-12T05:05:03.677Z,99.99
2019-03-12T05:06:03.690Z,99.99
2019-03-12T05:07:03.706Z,99.99
2019-03-12T05:08:03.719Z,99.99
2019-03-12T05:09:03.732Z,99.99
2019-03-12T05:10:03.747Z,99.99
2019-03-12T05:11:03.760Z,99.99
2019-03-12T05:12:03.774Z,99.99
2019-03-12T05:13:03.788Z,99.99
2019-03-12T05:15:03.817Z,99.99
2019-03-12T05:16:03.834Z,99.99
2019-03-12T05:17:03.845Z,99.99
2019-03-12T05:18:18.520Z,99.99
2019-03-12T05:19:03.873Z,99.99
2019-03-12T05:20:03.888Z,99.99
2019-03-12T05:21:03.901Z,99.99
2019-03-12T05:22:03.919Z,99.99
2019-03-12T05:23:03.929Z,99.99
2019-03-12T05:25:03.964Z,99.99
2019-03-12T05:26:03.981Z,99.99
2019-03-12T05:27:03.986Z,99.99
2019-03-12T05:28:04.003Z,99.99
2019-03-12T05:29:04.015Z,99.99
2019-03-12T05:30:03.781Z,99.99
2019-03-12T05:31:04.041Z,99.99
2019-03-12T05:32:04.069Z,99.99
2019-03-12T05:33:18.731Z,99.99
2019-03-12T05:35:04.110Z,99.99
2019-03-12T05:36:04.111Z,99.99
2019-03-12T05:37:04.126Z,99.99
2019-03-12T05:38:04.146Z,99.99
2019-03-12T05:39:04.151Z,99.99
2019-03-12T05:40:04.174Z,99.99
2019-03-12T05:41:04.179Z,99.99
2019-03-12T05:42:04.193Z,99.99
2019-03-12T05:43:04.207Z,99.99
2019-03-12T05:44:04.228Z,99.99
2019-03-12T05:45:04.235Z,99.99
2019-03-12T05:46:04.248Z,99.99
2019-03-12T05:47:04.266Z,99.99
2019-03-12T05:48:04.278Z,99.99
2019-03-12T05:49:04.292Z,99.99
2019-03-12T05:50:04.334Z,99.99
2019-03-12T05:51:04.319Z,99.99
2019-03-12T05:52:04.338Z,99.99
2019-03-12T05:53:04.351Z,99.99
2019-03-12T05:54:04.368Z,99.99
2019-03-12T05:55:04.376Z,99.99
2019-03-12T05:56:04.394Z,99.99
2019-03-12T05:57:04.404Z,99.99
2019-03-12T05:58:04.417Z,99.99
2019-03-12T05:59:04.431Z,99.99
2019-03-12T06:00:04.445Z,99.99
2019-03-12T06:01:04.461Z,99.99
2019-03-12T06:02:04.477Z,99.99
2019-03-12T06:03:04.488Z,99.99
2019-03-12T06:04:04.505Z,99.99
2019-03-12T06:05:19.177Z,99.99
2019-03-12T06:06:04.529Z,99.99
2019-03-12T06:07:04.546Z,99.99
2019-03-12T06:08:04.559Z,99.99
2019-03-12T06:09:04.571Z,99.99
2019-03-12T06:10:04.586Z,99.99
2019-03-12T06:11:04.600Z,99.99
2019-03-12T06:12:04.612Z,99.99
2019-03-12T06:13:04.626Z,99.99
2019-03-12T06:14:04.657Z,99.99
2019-03-12T06:15:04.655Z,99.99
2019-03-12T06:16:04.672Z,99.99
2019-03-12T06:18:04.704Z,99.99
2019-03-12T06:19:04.712Z,99.99
2019-03-12T06:20:04.728Z,99.99
2019-03-12T06:21:19.403Z,99.99
2019-03-12T06:22:04.753Z,99.99
2019-03-12T06:23:04.766Z,99.99
2019-03-12T06:24:04.781Z,99.99
2019-03-12T06:25:04.804Z,99.99
2019-03-12T06:26:04.810Z,99.99
2019-03-12T06:27:04.825Z,99.99
2019-03-12T06:28:04.839Z,99.99
2019-03-12T06:29:04.860Z,99.99
2019-03-12T06:30:04.870Z,99.99
2019-03-12T06:31:04.887Z,99.99
2019-03-12T06:32:04.891Z,99.99
2019-03-12T06:33:04.906Z,99.99
2019-03-12T06:34:04.923Z,99.99
2019-03-12T06:35:04.973Z,99.99
2019-03-12T06:36:04.954Z,99.99
2019-03-12T06:37:19.625Z,99.99
2019-03-12T06:38:05.077Z,99.99
2019-03-12T06:39:05.092Z,99.99
2019-03-12T06:40:05.006Z,99.99
2019-03-12T06:41:05.078Z,99.99
2019-03-12T06:42:07.680Z,99.99
2019-03-12T06:43:05.051Z,99.99
2019-03-12T06:44:05.071Z,99.99
2019-03-12T06:45:05.085Z,99.99
2019-03-12T06:46:05.114Z,99.99
2019-03-12T06:47:05.109Z,99.99
2019-03-12T06:48:05.129Z,99.99
2019-03-12T06:49:05.137Z,99.99
2019-03-12T06:50:05.151Z,99.99
2019-03-12T06:51:05.170Z,99.99
2019-03-12T06:52:05.177Z,99.99
2019-03-12T06:53:19.856Z,99.99
2019-03-12T06:54:05.210Z,99.99
2019-03-12T06:55:05.222Z,99.99
2019-03-12T06:56:05.241Z,99.99
2019-03-12T06:57:05.251Z,99.99
2019-03-12T06:58:05.266Z,99.99
2019-03-12T06:59:05.279Z,99.99
2019-03-12T07:00:05.295Z,99.99
2019-03-12T07:02:05.328Z,99.99
2019-03-12T07:03:05.392Z,99.99
2019-03-12T07:04:05.353Z,99.99
2019-03-12T07:05:05.368Z,99.99
2019-03-12T07:06:05.382Z,99.99
2019-03-12T07:07:11.301Z,99.99
2019-03-12T07:08:20.125Z,99.99
2019-03-12T07:09:05.440Z,99.99
2019-03-12T07:10:05.465Z,99.99
2019-03-12T07:11:05.218Z,99.99
2019-03-12T07:12:05.471Z,99.99
2019-03-12T07:13:05.489Z,99.99
2019-03-12T07:14:05.503Z,99.99
2019-03-12T07:15:05.517Z,99.99
2019-03-12T07:16:05.531Z,99.99
2019-03-12T07:17:05.543Z,99.99
2019-03-12T07:18:05.566Z,99.99
2019-03-12T07:19:05.579Z,99.99
2019-03-12T07:20:05.674Z,99.99
2019-03-12T07:21:05.616Z,99.99
2019-03-12T07:22:05.618Z,99.99
2019-03-12T07:23:05.638Z,99.99
2019-03-12T07:24:05.652Z,99.99
2019-03-12T07:25:05.663Z,99.99
2019-03-12T07:26:05.687Z,99.99
2019-03-12T07:28:05.707Z,99.99
2019-03-12T07:29:05.723Z,99.99
2019-03-12T07:30:05.736Z,99.99
2019-03-12T07:31:05.823Z,99.99
2019-03-12T07:32:05.769Z,99.99
2019-03-12T07:34:05.799Z,99.99
2019-03-12T07:35:05.813Z,99.99
2019-03-12T07:36:05.933Z,99.99
2019-03-12T07:37:05.842Z,99.99
2019-03-12T07:38:05.855Z,99.99
2019-03-12T07:39:05.626Z,99.99
2019-03-12T07:40:20.567Z,99.99
2019-03-12T07:41:05.903Z,99.99
2019-03-12T07:42:06.028Z,99.99
2019-03-12T07:43:05.929Z,99.99
2019-03-12T07:44:05.946Z,99.99
2019-03-12T07:45:05.963Z,99.99
2019-03-12T07:46:05.987Z,99.99
2019-03-12T07:47:05.990Z,99.99
2019-03-12T07:48:06.004Z,99.99
2019-03-12T07:49:06.120Z,99.99
2019-03-12T07:50:06.096Z,99.99
2019-03-12T07:51:06.048Z,99.99
2019-03-12T07:53:06.083Z,99.99
2019-03-12T07:55:06.108Z,99.99
2019-03-12T07:56:20.786Z,99.99
2019-03-12T07:57:06.139Z,99.99
2019-03-12T07:58:06.188Z,99.99
2019-03-12T07:59:08.802Z,99.99
2019-03-12T08:00:06.187Z,99.99
2019-03-12T08:01:06.201Z,99.99
2019-03-12T08:02:06.218Z,99.99
2019-03-12T08:03:06.233Z,99.99
2019-03-12T08:04:06.248Z,99.99
2019-03-12T08:06:06.280Z,99.99
2019-03-12T08:07:06.302Z,99.99
2019-03-12T08:09:06.328Z,99.99
2019-03-12T08:10:06.352Z,99.99
2019-03-12T08:11:06.368Z,99.99
2019-03-12T08:12:21.039Z,99.99
2019-03-12T08:13:06.394Z,99.99
2019-03-12T08:14:06.408Z,99.99
2019-03-12T08:15:06.428Z,99.99
2019-03-12T08:16:06.440Z,99.99
2019-03-12T08:17:06.459Z,99.99
2019-03-12T08:18:06.472Z,99.99
2019-03-12T08:19:06.493Z,99.99
2019-03-12T08:21:06.520Z,99.99
2019-03-12T08:22:06.543Z,99.99
2019-03-12T08:23:06.552Z,99.99
2019-03-12T08:24:06.576Z,99.99
2019-03-12T08:25:06.589Z,99.99
2019-03-12T08:26:06.694Z,99.99
2019-03-12T08:27:06.623Z,99.99
2019-03-12T08:28:21.295Z,99.99
2019-03-12T08:29:06.656Z,99.99
2019-03-12T08:30:06.671Z,99.99
2019-03-12T08:31:06.679Z,99.99
2019-03-12T08:32:06.696Z,99.99
2019-03-12T08:33:06.711Z,99.99
2019-03-12T08:34:06.730Z,99.99
2019-03-12T08:35:06.745Z,99.99
2019-03-12T08:36:06.758Z,99.99
2019-03-12T08:37:06.778Z,99.99
2019-03-12T08:38:06.790Z,99.99
2019-03-12T08:39:06.812Z,99.99
2019-03-12T08:40:06.830Z,99.99
2019-03-12T08:41:06.842Z,99.99
2019-03-12T08:42:06.856Z,99.99
2019-03-12T08:43:21.534Z,99.99
2019-03-12T08:44:06.888Z,99.99
2019-03-12T08:45:06.655Z,99.99
2019-03-12T08:47:06.935Z,99.99
2019-03-12T08:48:06.961Z,99.99
2019-03-12T08:49:06.967Z,99.99
2019-03-12T08:50:06.988Z,99.99
2019-03-12T08:51:07.878Z,99.99
2019-03-12T08:52:07.019Z,99.99
2019-03-12T08:53:07.037Z,99.99
2019-03-12T08:54:07.048Z,99.99
2019-03-12T08:55:07.072Z,99.99
2019-03-12T08:56:07.081Z,99.99
2019-03-12T08:57:07.099Z,99.99
2019-03-12T08:58:07.115Z,99.99
2019-03-12T08:59:07.133Z,99.99
2019-03-12T09:00:07.146Z,99.99
2019-03-12T09:01:07.161Z,99.99
2019-03-12T09:02:07.191Z,99.99
2019-03-12T09:03:07.200Z,99.99
2019-03-12T09:04:07.220Z,99.99
2019-03-12T09:05:07.226Z,99.99
2019-03-12T09:06:07.256Z,99.99
2019-03-12T09:07:07.772Z,99.99
2019-03-12T09:08:07.275Z,99.99
2019-03-12T09:09:07.291Z,99.99
2019-03-12T09:10:07.310Z,99.99
2019-03-12T09:11:07.327Z,99.99
2019-03-12T09:12:07.343Z,99.99
2019-03-12T09:13:07.366Z,99.99
2019-03-12T09:14:07.382Z,99.99
2019-03-12T09:15:22.053Z,99.99
2019-03-12T09:16:07.408Z,99.99
2019-03-12T09:17:07.422Z,99.99
2019-03-12T09:18:07.439Z,99.99
2019-03-12T09:19:07.458Z,99.99
2019-03-12T09:20:07.474Z,99.99
2019-03-12T09:21:07.489Z,99.99
2019-03-12T09:22:07.505Z,99.99
2019-03-12T09:23:07.574Z,99.99
2019-03-12T09:24:07.538Z,99.64
2019-03-12T09:25:07.556Z,99.26
2019-03-12T09:26:07.574Z,99.55
2019-03-12T09:27:07.591Z,98.97
2019-03-12T09:28:07.608Z,98.6
2019-03-12T09:29:07.630Z,97.31
2019-03-12T09:30:07.791Z,97.5
2019-03-12T09:31:22.326Z,97.17
2019-03-12T09:32:07.686Z,96.17
2019-03-12T09:33:07.694Z,97.17
2019-03-12T09:34:07.712Z,96.65
2019-03-12T09:35:07.736Z,96.46
2019-03-12T09:36:07.747Z,95.12
2019-03-12T09:38:07.786Z,95.46
2019-03-12T09:39:07.808Z,95.75
2019-03-12T09:40:07.902Z,95.84
2019-03-12T09:41:07.838Z,95.65
2019-03-12T09:42:07.885Z,96.03
2019-03-12T09:43:07.876Z,96.03
2019-03-12T09:44:07.896Z,95.56
2019-03-12T09:45:07.916Z,95.75
2019-03-12T09:46:08.027Z,96.31
2019-03-12T09:47:22.606Z,95.56
2019-03-12T09:48:07.961Z,95.27
2019-03-12T09:49:07.980Z,94.7
2019-03-12T09:50:07.998Z,95.17
2019-03-12T09:51:08.014Z,94.74
2019-03-12T09:52:08.032Z,93.7
2019-03-12T09:53:08.053Z,93.7
2019-03-12T09:54:08.068Z,94.08
2019-03-12T09:56:08.105Z,91.94
2019-03-12T09:57:08.123Z,92.6
2019-03-12T09:58:08.139Z,92.13
2019-03-12T09:59:08.165Z,91.75
2019-03-12T10:00:18.485Z,90.61
2019-03-12T10:01:08.238Z,89.75
2019-03-12T10:02:08.219Z,89.27
2019-03-12T10:03:22.899Z,89.27
2019-03-12T10:04:08.333Z,89.61
2019-03-12T10:05:08.273Z,87.79
2019-03-12T10:06:08.290Z,88.65
2019-03-12T10:07:08.309Z,88.79
2019-03-12T10:08:08.335Z,89.27
2019-03-12T10:09:08.413Z,88.65
2019-03-12T10:10:08.371Z,87.13
2019-03-12T10:11:08.488Z,87.46
2019-03-12T10:12:08.405Z,87.46
2019-03-12T10:13:08.427Z,88.75
2019-03-12T10:14:08.441Z,88.46
2019-03-12T10:15:08.461Z,89.14
2019-03-12T10:16:08.480Z,89.61
2019-03-12T10:17:08.714Z,90.37
2019-03-12T10:18:23.182Z,89.04
2019-03-12T10:19:08.539Z,89.89
2019-03-12T10:20:08.561Z,88.79
2019-03-12T10:21:08.577Z,88.13
2019-03-12T10:22:08.593Z,89.27
2019-03-12T10:23:08.611Z,88.51
2019-03-12T10:24:08.634Z,87.75
2019-03-12T10:25:08.400Z,88.42
2019-03-12T10:26:08.675Z,86.7
2019-03-12T10:27:08.688Z,86.61
2019-03-12T10:28:08.703Z,87.51
2019-03-12T10:29:08.730Z,85.89
2019-03-12T10:32:08.784Z,85.89
2019-03-12T10:33:08.800Z,84.94
2019-03-12T10:34:08.837Z,85.18
2019-03-12T10:35:08.837Z,85.37
2019-03-12T10:36:09.038Z,85.75
2019-03-12T10:37:16.495Z,85.18
2019-03-12T10:38:08.900Z,85.94
2019-03-12T10:39:08.969Z,86.7
2019-03-12T10:40:08.936Z,86.99
2019-03-12T10:41:08.952Z,86.42
2019-03-12T10:42:08.969Z,86.65
2019-03-12T10:43:08.995Z,85.8
2019-03-12T10:44:09.054Z,84.36
2019-03-12T10:45:09.031Z,83.89
2019-03-12T10:46:09.045Z,84.36
2019-03-12T10:47:09.066Z,84.8
2019-03-12T10:48:09.086Z,85.28
2019-03-12T10:49:09.105Z,85.22
2019-03-12T10:50:23.789Z,83.7
2019-03-12T10:51:09.246Z,84.08
2019-03-12T10:52:09.161Z,84.84
2019-03-12T10:53:09.178Z,83.98
2019-03-12T10:54:09.224Z,85.32
2019-03-12T10:55:15.718Z,86.08
2019-03-12T10:56:09.240Z,85.13
2019-03-12T10:57:09.260Z,83.41
2019-03-12T10:58:09.281Z,82.75
2019-03-12T10:59:09.302Z,82.69
2019-03-12T11:00:09.311Z,82.31
2019-03-12T11:01:09.330Z,81.55
2019-03-12T11:02:09.354Z,80.73
2019-03-12T11:03:09.428Z,81.21
2019-03-12T11:04:09.390Z,79.97
2019-03-12T11:05:09.407Z,79.88
2019-03-12T11:06:24.091Z,79.3
2019-03-12T11:07:19.044Z,79.11
2019-03-12T11:08:09.363Z,77.93
2019-03-12T11:09:09.487Z,79.17
2019-03-12T11:10:09.504Z,79.46
2019-03-12T11:11:09.524Z,79.07
2019-03-12T11:12:09.543Z,78.65
2019-03-12T11:13:09.564Z,80.65
2019-03-12T11:14:09.592Z,80.94
2019-03-12T11:15:09.601Z,80.98
2019-03-12T11:16:09.618Z,80.79
2019-03-12T11:17:09.658Z,81.46
2019-03-12T11:18:09.662Z,80.98
2019-03-12T11:19:09.679Z,80.98
2019-03-12T11:20:09.447Z,82.6
2019-03-12T11:21:09.716Z,80.98
2019-03-12T11:22:24.399Z,80.79
2019-03-12T11:23:09.757Z,80.22
2019-03-12T11:24:09.774Z,80.5
2019-03-12T11:25:09.792Z,77.87
2019-03-12T11:26:09.811Z,78.41
2019-03-12T11:27:09.835Z,78.16
2019-03-12T11:28:09.848Z,79.97
2019-03-12T11:29:09.870Z,78.54
2019-03-12T11:30:09.893Z,77.87
2019-03-12T11:31:09.936Z,78.64
2019-03-12T11:32:09.927Z,77.72
2019-03-12T11:33:09.946Z,75.34
2019-03-12T11:35:09.991Z,76.54
2019-03-12T11:36:10.069Z,76.73
2019-03-12T11:37:10.029Z,75.96
2019-03-12T11:38:24.806Z,74.25
2019-03-12T11:39:10.086Z,74.82
2019-03-12T11:40:10.091Z,76.06
2019-03-12T11:42:10.238Z,74.92
2019-03-12T11:43:10.178Z,74.44
2019-03-12T11:44:10.189Z,72.92
2019-03-12T11:45:20.126Z,73.87
2019-03-12T11:46:10.525Z,74.6
2019-03-12T11:47:10.326Z,74.5
2019-03-12T11:48:10.447Z,74.31
2019-03-12T11:49:10.368Z,74.88
2019-03-12T11:50:10.308Z,75.55
2019-03-12T11:51:10.329Z,75.55
2019-03-12T11:52:10.325Z,74.6
2019-03-12T11:53:24.993Z,73.58
2019-03-12T11:54:10.384Z,73.39
2019-03-12T11:55:10.373Z,73.68
2019-03-12T11:56:10.408Z,73.3
2019-03-12T11:57:10.419Z,72.67
2019-03-12T11:58:10.432Z,70.76
2019-03-12T11:59:10.460Z,69.62
2019-03-12T12:00:10.542Z,69.77
2019-03-12T12:01:10.521Z,70.63
2019-03-12T12:02:10.501Z,71.68
2019-03-12T12:03:10.522Z,70.19
2019-03-12T12:04:10.552Z,71.33
2019-03-12T12:06:10.661Z,68.18
2019-03-12T12:07:10.604Z,68.09
2019-03-12T12:08:10.622Z,68.38
2019-03-12T12:09:10.639Z,69.52
2019-03-12T12:10:10.665Z,70.09
2019-03-12T12:11:10.680Z,69.14
2019-03-12T12:12:10.696Z,70.09
2019-03-12T12:13:10.719Z,71.04
2019-03-12T12:14:10.736Z,70.67
2019-03-12T12:15:10.755Z,69.62
2019-03-12T12:16:10.776Z,70.47
2019-03-12T12:17:10.794Z,70.86
2019-03-12T12:18:10.820Z,70.47
2019-03-12T12:19:10.834Z,71.04
2019-03-12T12:20:10.859Z,69.04
2019-03-12T12:22:10.896Z,69.23
2019-03-12T12:23:10.915Z,68.22
2019-03-12T12:24:10.932Z,67.14
2019-03-12T12:25:25.616Z,67.8
2019-03-12T12:26:10.982Z,67.04
2019-03-12T12:27:10.995Z,67.71
2019-03-12T12:28:11.019Z,67.9
2019-03-12T12:29:11.135Z,67.14
2019-03-12T12:30:11.054Z,67.77
2019-03-12T12:31:11.071Z,68.24
2019-03-12T12:32:11.102Z,68.15
2019-03-12T12:33:11.112Z,68.05
2019-03-12T12:34:11.134Z,68.72
2019-03-12T12:35:11.160Z,67.86
2019-03-12T12:36:11.172Z,66.82
2019-03-12T12:38:11.212Z,66.91
2019-03-12T12:39:11.231Z,66.91
2019-03-12T12:40:11.249Z,67.29
2019-03-12T12:41:25.934Z,68.63
2019-03-12T12:42:11.296Z,68.53
2019-03-12T12:43:11.315Z,68.05
2019-03-12T12:44:11.331Z,67.58
2019-03-12T12:45:11.348Z,67.64
2019-03-12T12:46:11.368Z,67.83
2019-03-12T12:47:11.139Z,68.59
2019-03-12T12:48:11.405Z,69.54
2019-03-12T12:49:11.425Z,69.54
2019-03-12T12:50:11.443Z,68.91
2019-03-12T12:51:11.481Z,68.05
2019-03-12T12:52:11.482Z,68.05
2019-03-12T12:53:11.507Z,67.26
2019-03-12T12:54:12.345Z,67.26
2019-03-12T12:55:11.540Z,67.74
2019-03-12T12:56:11.562Z,67.26
2019-03-12T12:57:26.245Z,66.69
2019-03-12T12:58:11.612Z,66.97
2019-03-12T12:59:11.624Z,66.88
2019-03-12T13:00:11.697Z,67.26
2019-03-12T13:01:11.658Z,66.88
2019-03-12T13:02:11.676Z,67.35
2019-03-12T13:03:11.696Z,67.64
2019-03-12T13:04:11.729Z,67.55
2019-03-12T13:05:11.732Z,67.26
2019-03-12T13:06:11.751Z,67.07
2019-03-12T13:07:11.773Z,67.26
2019-03-12T13:08:11.789Z,65.64
2019-03-12T13:09:11.814Z,64.59
2019-03-12T13:11:11.849Z,64.97
2019-03-12T13:12:11.866Z,64.12
2019-03-12T13:13:26.551Z,64.02
2019-03-12T13:14:11.904Z,63.07
2019-03-12T13:15:11.928Z,63.86
2019-03-12T13:16:23.986Z,64.15
2019-03-12T13:17:11.963Z,64.59
2019-03-12T13:18:12.060Z,64.12
2019-03-12T13:19:12.103Z,64.62
2019-03-12T13:20:12.022Z,64.05
2019-03-12T13:21:12.040Z,63.1
2019-03-12T13:22:12.059Z,62.81
2019-03-12T13:23:12.076Z,62.43
2019-03-12T13:24:12.096Z,62.91
2019-03-12T13:25:12.127Z,63.39
2019-03-12T13:26:12.136Z,63.57
2019-03-12T13:27:12.156Z,64.34
2019-03-12T13:28:26.839Z,64.43
2019-03-12T13:29:12.196Z,64.91
2019-03-12T13:30:12.212Z,65.39
2019-03-12T13:31:12.232Z,64.05
2019-03-12T13:32:16.338Z,64.62